KMLI

Quad City International Airport

Moline, Illinois, USA
METAR KMLI 181052Z 00000KT 10SM CLR M01/M02 A3052 RMK AO2 SLP340 T10061017
Observed Flight Rules
Oct-18 @ 10:52 UTC (38 minutes ago) Visual Flight Rules
Visibility Clouds
10 miles
  • Clear skies
Temperatures Readings
Current -1°C / 30°F
Dewpoint -2°C / 28°F
Humidity 93%
Altimeter 30.52" Hg
Pressure 1034 hPa
Elevation 184
METAR KMLI 181052Z 00000KT 10SM CLR M01/M02 A3052 RMK AO2 SLP340 T10061017
Observed Flight Rules
Oct-18 @ 10:52 UTC
(38 minutes ago)
VFR
Clouds
  • Clear skies
Temperature Dewpoint
-1°C / 30°F -2°C / 28°F
Humidity Altimeter Pressure
93% 30.52" Hg 1034 hPa